Canguaretama, Brazil
Current Conditions -  °F | °C
As of 12:00 AM on Saturday 22 Nov 2014 (Local Time) from SBNT Reporting Station
Light Rain Light Rain  
Wind Chill: 75°   Ceiling: Unl
Heat Index: 75°   Visibility: 6mi
Dew Point: 70°   Wind: 12mph
Humidity: 83%   Direction: 130°SE
Pressure: 29.88"   Gusts: NA
Location:  6.38°S, 35.13°W
Report Text: SBNT 220300Z 13010KT 9000 -RA SCT020 SCT100 24/21 Q1012
Loading
Personal Weather Stations






























Interactive Weather Map New forecast layout! Learn more

10-Day Weather Forecast

Advertisements
Track Severe Weather on mobile